sensor_id;sensor_type;location;lat;lon;timestamp;pressure;altitude;pressure_sealevel;temperature;humidity
49949;BME280;35840;45.982;8.890;2022-10-29T00:02:01;99573.13;;;13.43;83.47
49949;BME280;35840;45.982;8.890;2022-10-29T00:04:28;99571.63;;;13.39;83.20
49949;BME280;35840;45.982;8.890;2022-10-29T00:06:54;99581.44;;;13.33;83.00
49949;BME280;35840;45.982;8.890;2022-10-29T00:09:21;99573.59;;;13.34;82.36
49949;BME280;35840;45.982;8.890;2022-10-29T00:11:48;99573.47;;;13.37;82.00
49949;BME280;35840;45.982;8.890;2022-10-29T00:14:15;99572.56;;;13.38;82.32
49949;BME280;35840;45.982;8.890;2022-10-29T00:16:41;99565.94;;;13.33;82.22
49949;BME280;35840;45.982;8.890;2022-10-29T00:19:08;99563.75;;;13.42;81.21
49949;BME280;35840;45.982;8.890;2022-10-29T00:21:35;99560.22;;;13.43;80.69
49949;BME280;35840;45.982;8.890;2022-10-29T00:24:03;99566.63;;;13.36;82.36
49949;BME280;35840;45.982;8.890;2022-10-29T00:26:30;99561.25;;;13.23;83.69
49949;BME280;35840;45.982;8.890;2022-10-29T00:28:57;99561.75;;;13.30;83.15
49949;BME280;35840;45.982;8.890;2022-10-29T00:31:24;99553.41;;;13.25;82.03
49949;BME280;35840;45.982;8.890;2022-10-29T00:33:53;99563.00;;;13.23;81.99
49949;BME280;35840;45.982;8.890;2022-10-29T00:36:22;99561.25;;;13.23;82.30
49949;BME280;35840;45.982;8.890;2022-10-29T00:38:50;99557.75;;;13.24;82.18
49949;BME280;35840;45.982;8.890;2022-10-29T00:41:19;99546.38;;;13.11;83.25
49949;BME280;35840;45.982;8.890;2022-10-29T00:43:51;99555.41;;;13.20;82.63
49949;BME280;35840;45.982;8.890;2022-10-29T00:46:28;99552.97;;;13.17;83.48
49949;BME280;35840;45.982;8.890;2022-10-29T00:48:57;99558.00;;;13.20;83.86
49949;BME280;35840;45.982;8.890;2022-10-29T00:51:24;99553.38;;;13.09;82.94
49949;BME280;35840;45.982;8.890;2022-10-29T00:53:59;99551.88;;;13.05;82.22
49949;BME280;35840;45.982;8.890;2022-10-29T00:56:28;99550.72;;;13.11;81.79
49949;BME280;35840;45.982;8.890;2022-10-29T00:58:58;99548.81;;;13.14;81.71
49949;BME280;35840;45.982;8.890;2022-10-29T01:01:24;99552.38;;;13.12;82.71
49949;BME280;35840;45.982;8.890;2022-10-29T01:03:51;99546.25;;;13.14;81.30
49949;BME280;35840;45.982;8.890;2022-10-29T01:06:20;99553.63;;;13.04;82.02
49949;BME280;35840;45.982;8.890;2022-10-29T01:08:48;99550.81;;;13.09;81.53
49949;BME280;35840;45.982;8.890;2022-10-29T01:11:25;99541.47;;;13.06;81.80
49949;BME280;35840;45.982;8.890;2022-10-29T01:19:32;99538.78;;;13.08;82.42
49949;BME280;35840;45.982;8.890;2022-10-29T01:22:29;99542.88;;;13.12;81.72
49949;BME280;35840;45.982;8.890;2022-10-29T01:33:51;99524.16;;;13.08;80.35
49949;BME280;35840;45.982;8.890;2022-10-29T01:36:31;99516.53;;;13.05;80.53
49949;BME280;35840;45.982;8.890;2022-10-29T01:42:00;99515.38;;;12.95;81.51
49949;BME280;35840;45.982;8.890;2022-10-29T01:47:19;99513.69;;;12.94;80.49
49949;BME280;35840;45.982;8.890;2022-10-29T01:49:51;99505.19;;;12.92;80.36
49949;BME280;35840;45.982;8.890;2022-10-29T01:52:21;99501.81;;;12.91;81.52
49949;BME280;35840;45.982;8.890;2022-10-29T01:54:48;99514.69;;;12.91;80.18
49949;BME280;35840;45.982;8.890;2022-10-29T01:57:27;99502.88;;;12.87;80.86
49949;BME280;35840;45.982;8.890;2022-10-29T01:59:59;99501.03;;;12.89;80.53
49949;BME280;35840;45.982;8.890;2022-10-29T02:11:10;99496.34;;;12.80;81.96
49949;BME280;35840;45.982;8.890;2022-10-29T02:13:47;99490.50;;;12.77;82.28
49949;BME280;35840;45.982;8.890;2022-10-29T02:16:15;99492.09;;;12.79;82.68
49949;BME280;35840;45.982;8.890;2022-10-29T02:18:45;99493.84;;;12.79;82.11
49949;BME280;35840;45.982;8.890;2022-10-29T02:21:16;99493.91;;;12.77;81.76
49949;BME280;35840;45.982;8.890;2022-10-29T02:23:43;99492.25;;;12.76;80.84
49949;BME280;35840;45.982;8.890;2022-10-29T02:26:10;99489.00;;;12.72;82.11
49949;BME280;35840;45.982;8.890;2022-10-29T02:28:36;99483.16;;;12.69;81.72
49949;BME280;35840;45.982;8.890;2022-10-29T02:31:04;99482.84;;;12.75;81.68
49949;BME280;35840;45.982;8.890;2022-10-29T02:33:30;99483.09;;;12.70;81.38
49949;BME280;35840;45.982;8.890;2022-10-29T02:35:57;99487.72;;;12.64;81.45
49949;BME280;35840;45.982;8.890;2022-10-29T02:38:24;99488.53;;;12.64;82.76
49949;BME280;35840;45.982;8.890;2022-10-29T02:40:51;99478.13;;;12.66;82.61
49949;BME280;35840;45.982;8.890;2022-10-29T02:43:17;99475.56;;;12.66;81.47
49949;BME280;35840;45.982;8.890;2022-10-29T02:45:49;99475.97;;;12.58;81.12
49949;BME280;35840;45.982;8.890;2022-10-29T02:48:16;99477.47;;;12.62;82.06
49949;BME280;35840;45.982;8.890;2022-10-29T02:50:43;99478.31;;;12.63;81.75
49949;BME280;35840;45.982;8.890;2022-10-29T02:53:09;99462.75;;;12.64;80.40
49949;BME280;35840;45.982;8.890;2022-10-29T02:55:36;99462.91;;;12.61;82.54
49949;BME280;35840;45.982;8.890;2022-10-29T02:58:02;99465.19;;;12.67;81.14
49949;BME280;35840;45.982;8.890;2022-10-29T03:00:29;99456.59;;;12.67;79.71
49949;BME280;35840;45.982;8.890;2022-10-29T03:02:56;99457.09;;;12.57;80.60
49949;BME280;35840;45.982;8.890;2022-10-29T03:05:23;99459.78;;;12.54;81.27
49949;BME280;35840;45.982;8.890;2022-10-29T03:07:49;99458.44;;;12.47;82.02
49949;BME280;35840;45.982;8.890;2022-10-29T03:10:16;99456.94;;;12.43;81.70
49949;BME280;35840;45.982;8.890;2022-10-29T03:12:43;99455.94;;;12.46;81.97
49949;BME280;35840;45.982;8.890;2022-10-29T03:15:09;99455.56;;;12.53;80.29
49949;BME280;35840;45.982;8.890;2022-10-29T03:17:37;99461.31;;;12.58;80.44
49949;BME280;35840;45.982;8.890;2022-10-29T03:20:04;99459.78;;;12.54;81.25
49949;BME280;35840;45.982;8.890;2022-10-29T03:22:31;99458.34;;;12.49;81.38
49949;BME280;35840;45.982;8.890;2022-10-29T03:24:58;99451.63;;;12.46;82.16
49949;BME280;35840;45.982;8.890;2022-10-29T03:27:24;99455.84;;;12.47;82.62
49949;BME280;35840;45.982;8.890;2022-10-29T03:29:51;99453.53;;;12.43;83.19
49949;BME280;35840;45.982;8.890;2022-10-29T03:32:18;99454.22;;;12.46;82.42
49949;BME280;35840;45.982;8.890;2022-10-29T03:34:44;99461.94;;;12.46;80.84
49949;BME280;35840;45.982;8.890;2022-10-29T03:37:11;99452.91;;;12.37;81.75
49949;BME280;35840;45.982;8.890;2022-10-29T03:39:37;99470.38;;;12.32;81.29
49949;BME280;35840;45.982;8.890;2022-10-29T03:42:04;99473.69;;;12.34;81.85
49949;BME280;35840;45.982;8.890;2022-10-29T03:44:31;99461.66;;;12.35;82.16
49949;BME280;35840;45.982;8.890;2022-10-29T03:46:57;99457.84;;;12.42;80.29
49949;BME280;35840;45.982;8.890;2022-10-29T03:49:24;99462.16;;;12.42;79.79
49949;BME280;35840;45.982;8.890;2022-10-29T03:51:51;99459.81;;;12.37;80.46
49949;BME280;35840;45.982;8.890;2022-10-29T03:54:17;99462.56;;;12.34;81.21
49949;BME280;35840;45.982;8.890;2022-10-29T03:56:44;99467.03;;;12.30;80.91
49949;BME280;35840;45.982;8.890;2022-10-29T03:59:11;99469.22;;;12.38;82.04
49949;BME280;35840;45.982;8.890;2022-10-29T04:01:37;99469.41;;;12.35;81.53
49949;BME280;35840;45.982;8.890;2022-10-29T04:04:04;99467.03;;;12.30;81.51
49949;BME280;35840;45.982;8.890;2022-10-29T04:06:31;99467.03;;;12.30;81.22
49949;BME280;35840;45.982;8.890;2022-10-29T04:08:57;99469.53;;;12.32;80.54
49949;BME280;35840;45.982;8.890;2022-10-29T04:11:24;99470.28;;;12.34;80.59
49949;BME280;35840;45.982;8.890;2022-10-29T04:13:52;99473.94;;;12.30;82.00
49949;BME280;35840;45.982;8.890;2022-10-29T04:16:18;99469.69;;;12.29;81.83
49949;BME280;35840;45.982;8.890;2022-10-29T04:18:46;99463.94;;;12.23;82.62
49949;BME280;35840;45.982;8.890;2022-10-29T04:21:13;99465.66;;;12.23;81.37
49949;BME280;35840;45.982;8.890;2022-10-29T04:23:59;99476.22;;;12.18;79.87
49949;BME280;35840;45.982;8.890;2022-10-29T04:26:46;99464.84;;;12.22;80.60
49949;BME280;35840;45.982;8.890;2022-10-29T04:29:33;99459.06;;;12.17;81.35
49949;BME280;35840;45.982;8.890;2022-10-29T04:31:59;99459.28;;;12.13;81.59
49949;BME280;35840;45.982;8.890;2022-10-29T04:34:26;99462.25;;;12.05;81.71
49949;BME280;35840;45.982;8.890;2022-10-29T04:36:52;99462.09;;;12.08;81.89
49949;BME280;35840;45.982;8.890;2022-10-29T04:39:19;99456.78;;;12.11;81.96
49949;BME280;35840;45.982;8.890;2022-10-29T04:41:49;99458.75;;;12.06;81.62
49949;BME280;35840;45.982;8.890;2022-10-29T04:44:15;99456.78;;;12.11;80.61
49949;BME280;35840;45.982;8.890;2022-10-29T04:46:42;99452.69;;;12.07;80.73
49949;BME280;35840;45.982;8.890;2022-10-29T04:49:09;99456.78;;;12.11;81.16
49949;BME280;35840;45.982;8.890;2022-10-29T04:51:35;99446.81;;;12.05;81.44
49949;BME280;35840;45.982;8.890;2022-10-29T04:54:02;99458.91;;;12.03;82.99
49949;BME280;35840;45.982;8.890;2022-10-29T04:56:29;99458.59;;;12.09;80.68
49949;BME280;35840;45.982;8.890;2022-10-29T04:58:56;99465.19;;;11.97;81.85
49949;BME280;35840;45.982;8.890;2022-10-29T05:01:23;99457.09;;;12.05;81.23
49949;BME280;35840;45.982;8.890;2022-10-29T05:03:50;99457.09;;;12.05;81.85
49949;BME280;35840;45.982;8.890;2022-10-29T05:06:24;99457.84;;;12.07;81.16
49949;BME280;35840;45.982;8.890;2022-10-29T05:08:50;99456.34;;;12.03;80.64
49949;BME280;35840;45.982;8.890;2022-10-29T05:11:17;99458.50;;;11.93;80.46
49949;BME280;35840;45.982;8.890;2022-10-29T05:13:44;99463.25;;;11.83;82.14
49949;BME280;35840;45.982;8.890;2022-10-29T05:16:10;99450.50;;;11.80;81.83
49949;BME280;35840;45.982;8.890;2022-10-29T05:18:37;99450.44;;;11.82;82.77
49949;BME280;35840;45.982;8.890;2022-10-29T05:21:05;99449.16;;;11.91;82.35
49949;BME280;35840;45.982;8.890;2022-10-29T05:23:32;99452.50;;;11.93;81.63
49949;BME280;35840;45.982;8.890;2022-10-29T05:25:58;99456.13;;;11.88;81.29
49949;BME280;35840;45.982;8.890;2022-10-29T05:28:25;99458.63;;;11.90;81.50
49949;BME280;35840;45.982;8.890;2022-10-29T05:30:52;99451.13;;;11.85;81.31
49949;BME280;35840;45.982;8.890;2022-10-29T05:33:22;99461.13;;;11.92;81.70
49949;BME280;35840;45.982;8.890;2022-10-29T05:35:50;99457.75;;;11.91;82.09
49949;BME280;35840;45.982;8.890;2022-10-29T05:38:17;99464.53;;;11.92;80.89
49949;BME280;35840;45.982;8.890;2022-10-29T05:40:44;99460.47;;;11.88;81.46
49949;BME280;35840;45.982;8.890;2022-10-29T05:43:15;99455.75;;;11.79;82.08
49949;BME280;35840;45.982;8.890;2022-10-29T05:45:42;99461.13;;;11.74;82.39
49949;BME280;35840;45.982;8.890;2022-10-29T05:48:10;99457.56;;;11.77;81.88
49949;BME280;35840;45.982;8.890;2022-10-29T05:50:38;99460.59;;;11.85;81.69
49949;BME280;35840;45.982;8.890;2022-10-29T05:53:07;99459.63;;;11.87;81.71
49949;BME280;35840;45.982;8.890;2022-10-29T05:55:35;99458.09;;;11.83;81.56
49949;BME280;35840;45.982;8.890;2022-10-29T05:58:04;99464.03;;;11.85;81.51
49949;BME280;35840;45.982;8.890;2022-10-29T06:00:35;99462.72;;;11.77;83.02
49949;BME280;35840;45.982;8.890;2022-10-29T06:03:02;99456.53;;;11.81;81.97
49949;BME280;35840;45.982;8.890;2022-10-29T06:05:29;99478.31;;;11.74;83.29
49949;BME280;35840;45.982;8.890;2022-10-29T06:07:56;99474.81;;;11.75;82.56
49949;BME280;35840;45.982;8.890;2022-10-29T06:10:25;99473.53;;;11.66;82.75
49949;BME280;35840;45.982;8.890;2022-10-29T06:12:52;99482.00;;;11.68;82.99
49949;BME280;35840;45.982;8.890;2022-10-29T06:15:19;99479.16;;;11.74;83.47
49949;BME280;35840;45.982;8.890;2022-10-29T06:17:47;99478.19;;;11.77;82.07
49949;BME280;35840;45.982;8.890;2022-10-29T06:20:15;99484.00;;;11.80;82.25
49949;BME280;35840;45.982;8.890;2022-10-29T06:22:42;99462.91;;;11.72;82.39
49949;BME280;35840;45.982;8.890;2022-10-29T06:25:09;99474.00;;;11.74;82.97
49949;BME280;35840;45.982;8.890;2022-10-29T06:27:36;99473.69;;;11.80;83.43
49949;BME280;35840;45.982;8.890;2022-10-29T06:30:04;99479.84;;;11.78;84.21
49949;BME280;35840;45.982;8.890;2022-10-29T06:32:31;99466.13;;;11.77;84.43
49949;BME280;35840;45.982;8.890;2022-10-29T06:34:58;99468.16;;;11.70;83.57
49949;BME280;35840;45.982;8.890;2022-10-29T06:37:24;99470.38;;;11.78;83.92
49949;BME280;35840;45.982;8.890;2022-10-29T06:39:51;99469.81;;;11.71;84.20
49949;BME280;35840;45.982;8.890;2022-10-29T06:42:18;99466.81;;;11.81;85.03
49949;BME280;35840;45.982;8.890;2022-10-29T06:44:44;99468.41;;;11.83;85.36
49949;BME280;35840;45.982;8.890;2022-10-29T06:47:11;99462.03;;;11.91;85.11
49949;BME280;35840;45.982;8.890;2022-10-29T06:49:37;99469.69;;;11.94;85.24
49949;BME280;35840;45.982;8.890;2022-10-29T06:52:04;99456.88;;;11.91;85.15
49949;BME280;35840;45.982;8.890;2022-10-29T06:54:31;99470.28;;;11.99;84.80
49949;BME280;35840;45.982;8.890;2022-10-29T06:56:58;99473.47;;;12.04;85.23
49949;BME280;35840;45.982;8.890;2022-10-29T06:59:24;99483.00;;;12.02;85.61
49949;BME280;35840;45.982;8.890;2022-10-29T07:01:51;99477.78;;;12.03;85.99
49949;BME280;35840;45.982;8.890;2022-10-29T07:04:18;99483.09;;;12.00;86.03
49949;BME280;35840;45.982;8.890;2022-10-29T07:06:46;99478.72;;;12.02;86.71
49949;BME280;35840;45.982;8.890;2022-10-29T07:09:12;99483.47;;;12.10;86.44
49949;BME280;35840;45.982;8.890;2022-10-29T07:11:39;99480.75;;;12.13;86.84
49949;BME280;35840;45.982;8.890;2022-10-29T07:14:06;99486.44;;;12.20;88.43
49949;BME280;35840;45.982;8.890;2022-10-29T07:16:35;99483.78;;;12.21;88.19
49949;BME280;35840;45.982;8.890;2022-10-29T07:19:03;99492.81;;;12.30;88.47
49949;BME280;35840;45.982;8.890;2022-10-29T07:21:30;99482.41;;;12.32;89.23
49949;BME280;35840;45.982;8.890;2022-10-29T07:23:56;99487.53;;;12.33;89.20
49949;BME280;35840;45.982;8.890;2022-10-29T07:26:23;99489.09;;;12.36;89.64
49949;BME280;35840;45.982;8.890;2022-10-29T07:28:50;99488.97;;;12.39;90.35
49949;BME280;35840;45.982;8.890;2022-10-29T07:31:16;99493.09;;;12.42;89.77
49949;BME280;35840;45.982;8.890;2022-10-29T07:33:43;99487.75;;;12.46;89.51
49949;BME280;35840;45.982;8.890;2022-10-29T07:36:09;99485.91;;;12.48;89.94
49949;BME280;35840;45.982;8.890;2022-10-29T07:38:36;99495.00;;;12.55;90.08
49949;BME280;35840;45.982;8.890;2022-10-29T07:41:03;99490.53;;;12.59;89.66
49949;BME280;35840;45.982;8.890;2022-10-29T07:43:29;99488.47;;;12.66;90.07
49949;BME280;35840;45.982;8.890;2022-10-29T07:45:56;99488.00;;;12.75;90.80
49949;BME280;35840;45.982;8.890;2022-10-29T07:48:23;99493.00;;;12.78;89.96
49949;BME280;35840;45.982;8.890;2022-10-29T07:50:49;99482.75;;;12.77;90.30
49949;BME280;35840;45.982;8.890;2022-10-29T07:53:16;99496.28;;;12.82;90.41
49949;BME280;35840;45.982;8.890;2022-10-29T07:55:43;99492.53;;;12.87;89.62
49949;BME280;35840;45.982;8.890;2022-10-29T07:58:11;99500.28;;;12.87;89.14
49949;BME280;35840;45.982;8.890;2022-10-29T08:00:39;99500.88;;;12.92;89.96
49949;BME280;35840;45.982;8.890;2022-10-29T08:03:07;99495.69;;;12.92;90.16
49949;BME280;35840;45.982;8.890;2022-10-29T08:05:34;99499.13;;;12.93;89.15
49949;BME280;35840;45.982;8.890;2022-10-29T08:08:01;99494.53;;;12.98;89.56
49949;BME280;35840;45.982;8.890;2022-10-29T08:10:29;99494.41;;;13.01;88.53
49949;BME280;35840;45.982;8.890;2022-10-29T08:12:58;99495.22;;;13.02;89.17
49949;BME280;35840;45.982;8.890;2022-10-29T08:15:27;99496.66;;;13.07;88.97
49949;BME280;35840;45.982;8.890;2022-10-29T08:17:54;99485.34;;;13.10;88.22
49949;BME280;35840;45.982;8.890;2022-10-29T08:20:23;99486.84;;;13.14;88.18
49949;BME280;35840;45.982;8.890;2022-10-29T08:22:50;99494.25;;;13.20;88.49
49949;BME280;35840;45.982;8.890;2022-10-29T08:25:17;99491.59;;;13.22;88.66
49949;BME280;35840;45.982;8.890;2022-10-29T08:27:44;99493.84;;;13.28;88.41
49949;BME280;35840;45.982;8.890;2022-10-29T08:30:12;99484.28;;;13.30;88.60
49949;BME280;35840;45.982;8.890;2022-10-29T08:32:46;99478.25;;;13.30;88.92
49949;BME280;35840;45.982;8.890;2022-10-29T08:35:13;99486.63;;;13.35;88.83
49949;BME280;35840;45.982;8.890;2022-10-29T08:37:43;99476.13;;;13.38;88.62
49949;BME280;35840;45.982;8.890;2022-10-29T08:40:24;99482.81;;;13.42;88.74
49949;BME280;35840;45.982;8.890;2022-10-29T08:43:18;99489.56;;;13.45;88.34
49949;BME280;35840;45.982;8.890;2022-10-29T08:45:52;99483.41;;;13.47;87.92
49949;BME280;35840;45.982;8.890;2022-10-29T08:53:33;99471.38;;;13.62;87.30
49949;BME280;35840;45.982;8.890;2022-10-29T08:56:05;99462.53;;;13.66;87.51
49949;BME280;35840;45.982;8.890;2022-10-29T08:58:56;99464.94;;;13.69;88.32
49949;BME280;35840;45.982;8.890;2022-10-29T09:01:24;99460.28;;;13.76;87.87
49949;BME280;35840;45.982;8.890;2022-10-29T09:03:51;99462.47;;;13.84;87.46
49949;BME280;35840;45.982;8.890;2022-10-29T09:06:22;99457.94;;;13.87;87.70
49949;BME280;35840;45.982;8.890;2022-10-29T09:09:00;99457.75;;;13.90;87.53
49949;BME280;35840;45.982;8.890;2022-10-29T09:14:20;99454.06;;;13.94;85.66
49949;BME280;35840;45.982;8.890;2022-10-29T09:19:47;99446.00;;;14.01;84.49
49949;BME280;35840;45.982;8.890;2022-10-29T09:25:22;99447.47;;;14.05;82.43
49949;BME280;35840;45.982;8.890;2022-10-29T09:30:28;99443.34;;;14.17;82.33
49949;BME280;35840;45.982;8.890;2022-10-29T09:32:59;99441.97;;;14.25;82.07
49949;BME280;35840;45.982;8.890;2022-10-29T09:35:51;99437.38;;;14.45;78.95
49949;BME280;35840;45.982;8.890;2022-10-29T09:38:33;99434.25;;;14.54;76.40
49949;BME280;35840;45.982;8.890;2022-10-29T09:41:02;99436.84;;;14.54;76.79
49949;BME280;35840;45.982;8.890;2022-10-29T09:46:39;99437.81;;;14.68;78.88
49949;BME280;35840;45.982;8.890;2022-10-29T09:52:15;99431.50;;;14.86;80.57
49949;BME280;35840;45.982;8.890;2022-10-29T09:54:42;99426.16;;;14.89;79.84
49949;BME280;35840;45.982;8.890;2022-10-29T09:57:20;99433.63;;;14.94;78.29
49949;BME280;35840;45.982;8.890;2022-10-29T09:59:58;99433.25;;;15.00;78.02
49949;BME280;35840;45.982;8.890;2022-10-29T10:02:38;99429.06;;;15.12;80.52
49949;BME280;35840;45.982;8.890;2022-10-29T10:07:37;99433.59;;;15.23;81.46
49949;BME280;35840;45.982;8.890;2022-10-29T10:10:07;99431.44;;;15.29;83.05
49949;BME280;35840;45.982;8.890;2022-10-29T10:12:47;99422.19;;;15.40;82.10
49949;BME280;35840;45.982;8.890;2022-10-29T10:20:31;99415.06;;;15.56;82.33
49949;BME280;35840;45.982;8.890;2022-10-29T10:22:58;99400.47;;;15.55;81.79
49949;BME280;35840;45.982;8.890;2022-10-29T10:25:38;99404.13;;;15.65;80.55
49949;BME280;35840;45.982;8.890;2022-10-29T10:31:27;99399.16;;;15.75;79.42
49949;BME280;35840;45.982;8.890;2022-10-29T10:33:54;99404.94;;;15.93;79.83
49949;BME280;35840;45.982;8.890;2022-10-29T10:36:24;99392.16;;;15.90;79.11
49949;BME280;35840;45.982;8.890;2022-10-29T10:38:54;99388.25;;;16.10;78.57
49949;BME280;35840;45.982;8.890;2022-10-29T10:41:24;99389.59;;;16.16;78.43
49949;BME280;35840;45.982;8.890;2022-10-29T10:43:56;99380.56;;;16.22;77.11
49949;BME280;35840;45.982;8.890;2022-10-29T10:46:28;99385.75;;;16.22;76.05
49949;BME280;35840;45.982;8.890;2022-10-29T10:51:31;99377.16;;;16.34;74.54
49949;BME280;35840;45.982;8.890;2022-10-29T10:54:00;99369.47;;;16.32;76.41
49949;BME280;35840;45.982;8.890;2022-10-29T10:56:28;99378.91;;;16.46;77.38
49949;BME280;35840;45.982;8.890;2022-10-29T11:04:27;99361.34;;;16.50;76.09
49949;BME280;35840;45.982;8.890;2022-10-29T11:06:59;99357.00;;;16.50;74.69
49949;BME280;35840;45.982;8.890;2022-10-29T11:09:36;99356.38;;;16.47;76.29
49949;BME280;35840;45.982;8.890;2022-10-29T11:14:47;99337.91;;;16.51;73.71
49949;BME280;35840;45.982;8.890;2022-10-29T11:17:28;99341.41;;;16.63;73.50
49949;BME280;35840;45.982;8.890;2022-10-29T11:19:59;99341.94;;;16.68;74.15
49949;BME280;35840;45.982;8.890;2022-10-29T11:27:57;99338.59;;;16.66;73.74
49949;BME280;35840;45.982;8.890;2022-10-29T11:30:26;99325.16;;;16.73;73.53
49949;BME280;35840;45.982;8.890;2022-10-29T11:33:20;99323.91;;;16.78;72.70
49949;BME280;35840;45.982;8.890;2022-10-29T11:38:41;99308.13;;;16.94;70.65
49949;BME280;35840;45.982;8.890;2022-10-29T11:41:21;99306.00;;;16.99;72.63
49949;BME280;35840;45.982;8.890;2022-10-29T11:43:49;99308.13;;;16.94;71.54
49949;BME280;35840;45.982;8.890;2022-10-29T11:47:21;99299.06;;;17.00;74.03
49949;BME280;35840;45.982;8.890;2022-10-29T11:52:02;99309.75;;;17.19;72.92
49949;BME280;35840;45.982;8.890;2022-10-29T11:57:38;99295.47;;;17.25;70.47
49949;BME280;35840;45.982;8.890;2022-10-29T12:00:29;99301.78;;;17.34;68.61
49949;BME280;35840;45.982;8.890;2022-10-29T12:11:44;99289.09;;;17.65;67.96
49949;BME280;35840;45.982;8.890;2022-10-29T12:20:02;99272.44;;;17.67;65.51
49949;BME280;35840;45.982;8.890;2022-10-29T12:23:08;99269.97;;;17.66;66.85
49949;BME280;35840;45.982;8.890;2022-10-29T12:26:13;99267.13;;;17.69;65.06
49949;BME280;35840;45.982;8.890;2022-10-29T12:28:55;99263.72;;;17.80;64.11
49949;BME280;35840;45.982;8.890;2022-10-29T12:34:05;99268.31;;;17.76;65.57
49949;BME280;35840;45.982;8.890;2022-10-29T12:36:35;99263.53;;;17.94;67.48
49949;BME280;35840;45.982;8.890;2022-10-29T12:39:12;99264.13;;;17.98;65.88
49949;BME280;35840;45.982;8.890;2022-10-29T12:41:41;99258.81;;;17.99;65.79
49949;BME280;35840;45.982;8.890;2022-10-29T12:49:23;99248.97;;;17.92;63.71
49949;BME280;35840;45.982;8.890;2022-10-29T12:52:01;99256.44;;;17.96;63.25
49949;BME280;35840;45.982;8.890;2022-10-29T12:54:43;99243.56;;;17.95;63.51
49949;BME280;35840;45.982;8.890;2022-10-29T12:59:39;99248.16;;;17.91;64.18
49949;BME280;35840;45.982;8.890;2022-10-29T13:17:54;99226.94;;;18.41;63.95
49949;BME280;35840;45.982;8.890;2022-10-29T13:20:36;99215.94;;;18.37;63.47
49949;BME280;35840;45.982;8.890;2022-10-29T13:23:30;99208.13;;;18.37;62.95
49949;BME280;35840;45.982;8.890;2022-10-29T13:25:58;99212.97;;;18.42;63.46
49949;BME280;35840;45.982;8.890;2022-10-29T13:41:37;99210.34;;;18.97;61.61
49949;BME280;35840;45.982;8.890;2022-10-29T13:44:09;99213.38;;;19.02;60.98
49949;BME280;35840;45.982;8.890;2022-10-29T13:49:15;99179.63;;;19.01;63.01
49949;BME280;35840;45.982;8.890;2022-10-29T13:51:56;99197.88;;;19.22;60.13
49949;BME280;35840;45.982;8.890;2022-10-29T13:54:25;99199.34;;;19.15;60.43
49949;BME280;35840;45.982;8.890;2022-10-29T13:57:03;99188.03;;;19.04;63.58
49949;BME280;35840;45.982;8.890;2022-10-29T13:59:40;99188.78;;;19.16;64.79
49949;BME280;35840;45.982;8.890;2022-10-29T14:02:22;99189.78;;;19.25;65.14
49949;BME280;35840;45.982;8.890;2022-10-29T14:04:55;99193.72;;;19.40;65.41
49949;BME280;35840;45.982;8.890;2022-10-29T14:21:05;99181.31;;;19.54;64.36
49949;BME280;35840;45.982;8.890;2022-10-29T14:23:32;99186.00;;;19.60;66.45
49949;BME280;35840;45.982;8.890;2022-10-29T14:26:00;99183.00;;;19.65;66.86
49949;BME280;35840;45.982;8.890;2022-10-29T14:28:33;99180.78;;;19.60;68.00
49949;BME280;35840;45.982;8.890;2022-10-29T14:38:55;99177.50;;;19.58;71.81
49949;BME280;35840;45.982;8.890;2022-10-29T14:41:23;99185.50;;;19.66;66.84
49949;BME280;35840;45.982;8.890;2022-10-29T14:44:15;99175.78;;;19.78;66.61
49949;BME280;35840;45.982;8.890;2022-10-29T14:46:51;99164.09;;;19.72;68.38
49949;BME280;35840;45.982;8.890;2022-10-29T14:49:24;99185.03;;;19.82;68.83
49949;BME280;35840;45.982;8.890;2022-10-29T14:52:07;99179.34;;;19.77;68.44
49949;BME280;35840;45.982;8.890;2022-10-29T14:54:46;99181.78;;;19.69;67.72
49949;BME280;35840;45.982;8.890;2022-10-29T14:57:15;99184.53;;;19.67;69.05
49949;BME280;35840;45.982;8.890;2022-10-29T14:59:51;99180.13;;;19.58;69.09
49949;BME280;35840;45.982;8.890;2022-10-29T15:02:19;99179.66;;;19.53;68.25
49949;BME280;35840;45.982;8.890;2022-10-29T15:05:28;99185.59;;;19.55;68.98
49949;BME280;35840;45.982;8.890;2022-10-29T15:08:15;99184.56;;;19.46;69.29
49949;BME280;35840;45.982;8.890;2022-10-29T15:10:56;99192.91;;;19.40;72.13
49949;BME280;35840;45.982;8.890;2022-10-29T15:13:30;99186.81;;;19.30;70.07
49949;BME280;35840;45.982;8.890;2022-10-29T15:16:05;99182.63;;;19.17;71.26
49949;BME280;35840;45.982;8.890;2022-10-29T15:18:34;99187.91;;;19.06;70.39
49949;BME280;35840;45.982;8.890;2022-10-29T15:21:02;99191.06;;;18.88;71.98
49949;BME280;35840;45.982;8.890;2022-10-29T15:23:33;99185.75;;;18.79;72.77
49949;BME280;35840;45.982;8.890;2022-10-29T15:26:18;99187.81;;;18.64;74.25
49949;BME280;35840;45.982;8.890;2022-10-29T15:28:50;99186.69;;;18.45;75.42
49949;BME280;35840;45.982;8.890;2022-10-29T15:31:43;99186.16;;;18.30;75.98
49949;BME280;35840;45.982;8.890;2022-10-29T15:34:17;99184.72;;;18.26;75.73
49949;BME280;35840;45.982;8.890;2022-10-29T15:36:52;99194.91;;;18.18;76.58
49949;BME280;35840;45.982;8.890;2022-10-29T15:39:40;99192.31;;;18.06;77.89
49949;BME280;35840;45.982;8.890;2022-10-29T15:42:20;99204.75;;;17.92;78.74
49949;BME280;35840;45.982;8.890;2022-10-29T15:50:14;99200.69;;;17.76;80.31
49949;BME280;35840;45.982;8.890;2022-10-29T15:52:44;99195.84;;;17.60;81.36
49949;BME280;35840;45.982;8.890;2022-10-29T15:55:20;99187.78;;;17.52;81.89
49949;BME280;35840;45.982;8.890;2022-10-29T15:57:54;99197.00;;;17.56;81.35
49949;BME280;35840;45.982;8.890;2022-10-29T16:00:22;99200.78;;;17.52;81.81
49949;BME280;35840;45.982;8.890;2022-10-29T16:02:49;99204.44;;;17.38;82.12
49949;BME280;35840;45.982;8.890;2022-10-29T16:05:17;99208.44;;;17.31;82.06
49949;BME280;35840;45.982;8.890;2022-10-29T16:07:45;99207.97;;;17.26;82.39
49949;BME280;35840;45.982;8.890;2022-10-29T16:10:16;99207.59;;;17.19;82.97